Aviation Digital Data Service (ADDS)

Output produced by METARs form (0051 UTC 22 September 2017)
found at http://www.aviationweather.gov/adds/metars/
 
TAF CYXX 212338Z 2200/2224 30006KT P6SM SCT050 BKN100 
     BECMG 2203/2205 VRB03KT 
     FM220600 VRB03KT P6SM SCT100 
     FM222000 22008KT P6SM FEW100 RMK NXT FCST BY 220600Z
       
TAF CYLT 212330Z 2200/2212 VRB03KT P6SM SCT120 
     FM220600 VRB03KT P6SM FEW010 BKN025 OVC100 
     TEMPO 2206/2212 3SM -SN BKN010 OVC025 RMK NXT FCST BY 220600Z
       
TAF CYAM 211938Z 2120/2208 VRB03KT P6SM BKN015 
     TEMPO 2120/2123 SCT015 
     FM212300 09005KT P6SM SCT020 
     TEMPO 2123/2203 5SM BR BKN020 
     FM220300 09005KT 6SM BR FEW004 SCT030 
     TEMPO 2203/2206 11/2SM BR 
     FM220600 09005KT 1/2SM FG VV002 
     PROB40 2206/2208 1/4SM FG VV001 RMK NXT FCST BY 220200Z
       
TAF CYAW 212335Z 2200/2206 04005KT P6SM FEW120 OVC250 RMK NXT FCST BY 220600Z
       
TAF AMD CYAY 212246Z 2122/2208 31012G22KT P6SM BKN030 
     BECMG 2200/2202 32008KT 
     FM220400 VRB03KT P6SM SCT030 RMK FCST BASED ON AUTO OBS. NXT FCST BY 220200Z
       
TAF CYAZ 211738Z 2118/2201 VRB03KT P6SM FEW220 
     BECMG 2120/2122 27008KT RMK NXT FCST WILL BE ISSUED AT 221445Z
       
TAF CYBC 211938Z 2120/2208 10005KT P6SM SKC 
     BECMG 2200/2202 VRB03KT 
     FM220600 VRB03KT P6SM SCT030 BKN050 RMK FCST BASED ON AUTO OBS. NXT FCST BY 220200Z
       
TAF CYBG 212330Z 2200/2224 10005KT P6SM SKC 
     FM220600 10008KT P6SM BKN050 
     FM222200 08008KT P6SM SCT050 RMK NXT FCST BY 220300Z
       
TAF CYBK 212338Z 2200/2212 03008KT P6SM SCT012 
     TEMPO 2200/2212 BKN012 RMK NXT FCST BY 220600Z
       
TAF CYBL 220038Z 2201/2204 VRB03KT P6SM FEW030 FEW250 RMK NXT FCST WILL BE ISSUED AT 221445Z
       
TAF CYBN 212330Z 2200/2212 14005KT P6SM SKC 
     BECMG 2200/2202 VRB03KT 
     FM220600 VRB03KT P6SM FEW100 
     TEMPO 2206/2212 3SM BR 
     PROB30 2208/2212 1/2SM FG RMK FCST BASED ON AUTO OBS. NXT FCST BY 220600Z
       
TAF CYBR 212341Z 2200/2212 32008KT P6SM SCT120 BKN200 
     BECMG 2204/2206 FEW200 RMK NXT FCST BY 220600Z
       
TAF CYBW 212338Z 2200/2204 31015KT P6SM SCT015 BKN025 OVC050 
     TEMPO 2200/2202 P6SM -RA BKN012 OVC025 
     FM220200 34012KT P6SM OVC012 
     TEMPO 2202/2204 4SM -RA BR OVC006 RMK FCST BASED ON AUTO OBS. NXT FCST WILL BE ISSUED AT 221145Z
       
TAF AMD CYBX 212135Z 2121/2208 35008KT P6SM BKN040 
     FM220300 VRB03KT P6SM SCT040 RMK NXT FCST BY 220200Z
       
TAF CYCB 220038Z 2201/2213 06006KT P6SM SCT006 OVC010 
     TEMPO 2201/2213 5SM -SN BR OVC006 RMK NXT FCST BY 220700Z
       
TAF CYCD 212338Z 2200/2204 VRB03KT P6SM FEW050 SCT100 RMK NXT FCST WILL BE ISSUED AT 221445Z
       
TAF CYCG 220038Z 2201/2204 35005KT P6SM FEW050 SCT080 BKN160 
     TEMPO 2201/2204 P6SM -SHRA FEW050 BKN080 OVC160 RMK NXT FCST WILL BE ISSUED AT 221445Z
       
TAF CYCO 220038Z 2201/2213 08010KT P6SM FEW012 SCT080 
     TEMPO 2201/2213 5SM -RA BR BKN012 
     BECMG 2205/2207 VRB03KT RMK NXT FCST BY 220700Z
       
TAF CYCX 212330Z 2200/2212 05005KT P6SM SCT230 RMK NXT FCST BY 220600Z
       
TAF CYCY 220038Z 2201/2213 35015G25KT P6SM SCT020 OVC030 
     TEMPO 2201/2213 3SM -SN -FZDZ OVC020 RMK FCST BASED ON AUTO OBS. NXT FCST BY 220700Z
       
TAF CYDA 212338Z 2200/2203 VRB03KT P6SM SCT040 BKN080 RMK NXT FCST WILL BE ISSUED AT 221445Z
       
TAF CYDB 212338Z 2200/2212 12012G22KT P6SM FEW060 SCT120 BKN220 RMK NXT FCST BY 220600Z
       
TAF CYDF 211944Z 2120/2208 28012KT P6SM SCT040 
     BECMG 2122/2124 VRB03KT 
     FM220600 VRB03KT P6SM SKC 
     PROB30 2206/2208 1/2SM FG VV002 RMK NXT FCST BY 220200Z
       
TAF CYDL 212338Z 2200/2202 24007KT P6SM FEW060 RMK FCST BASED ON AUTO OBS. NXT FCST WILL BE ISSUED AT 221545Z
       
TAF CYDN 212341Z 2200/2212 26005KT P6SM SCT120 BKN200 
     BECMG 2202/2204 26008KT FEW200 RMK FCST BASED ON AUTO OBS. NXT FCST BY 220600Z
       
TAF CYDQ 220038Z 2201/2205 32005KT P6SM FEW030 RMK FCST BASED ON AUTO OBS. NXT FCST WILL BE ISSUED AT 221245Z
       
TAF CYED 212330Z 2200/2212 35010KT 3SM -RA BR OVC007 
     TEMPO 2200/2210 P6SM NSW BKN012 OVC030 
     FM221000 VRB03KT 11/2SM -RA BR OVC003 
     TEMPO 2210/2212 4SM BR OVC006 RMK FCST BASED ON AUTO OBS NXT FCST BY 220600Z
       
TAF CYEG 212338Z 2200/2224 34012KT P6SM -RA FEW008 BKN015 OVC025 
     FM220500 33010KT P6SM -RASN OVC006 
     TEMPO 2205/2216 2SM -SHSN OVC004 
     FM221600 30006KT P6SM BKN012 OVC025 
     TEMPO 2216/2220 5SM -DZ BR OVC008 
     FM222000 09008KT P6SM BKN020 RMK NXT FCST BY 220300Z
       
TAF CYEK 212338Z 2200/2212 06020G30KT P6SM OVC012 
     TEMPO 2200/2212 3SM -RA BR OVC007 RMK FCST BASED ON AUTO OBS. NXT FCST BY 220600Z
       
TAF CYEV 220038Z 2201/2213 32006KT 2SM -RA BR OVC005 
     TEMPO 2201/2213 P6SM -DZ OVC008 RMK NXT FCST BY 220700Z
       
TAF CYFB 212338Z 2200/2224 14008KT P6SM SCT020 BKN040 
     TEMPO 2200/2203 P6SM -DZ BKN020 OVC030 
     FM220300 VRB03KT P6SM SCT008 BKN025 
     TEMPO 2203/2209 P6SM -RASN BKN008 OVC020 
     BECMG 2204/2206 33008KT 
     FM220900 33008KT P6SM SCT008 
     TEMPO 2209/2212 BKN008 
     BECMG 2213/2215 34015KT RMK NXT FCST BY 220600Z
       
TAF CYFC 212338Z 2200/2212 03006KT P6SM SKC 
     PROB30 2208/2211 11/2SM BR RMK FCST BASED ON AUTO OBS. NXT FCST BY 220600Z
       
TAF CYFS 212345Z 2200/2212 VRB03KT P6SM FEW100 RMK NXT FCST BY 220600Z
       
TAF CYGK 211938Z 2120/2203 04007KT P6SM FEW020 RMK NXT FCST WILL BE ISSUED AT 221145Z
       
TAF CYGL 212338Z 2200/2224 22008KT P6SM FEW025 
     FM220800 15005KT P6SM BKN140 
     BECMG 2212/2214 15010KT 
     FM221700 16012KT P6SM BKN030 
     FM221900 18012G22KT P6SM -SHRA BKN020 
     FM222200 24015G25KT P6SM BKN030 RMK NXT FCST BY 220600Z
       
TAF CYGP 211938Z 2120/2208 10006KT P6SM SKC 
     BECMG 2200/2202 VRB03KT 
     BECMG 2202/2204 29005KT 
     FM220500 28004KT 6SM BR SKC 
     PROB30 2205/2208 11/2SM BR RMK NXT FCST BY 220200Z
       
TAF CYGQ 211938Z 2120/2208 13006KT P6SM SKC 
     BECMG 2200/2202 VRB03KT RMK NXT FCST BY 220200Z
       
TAF CYGR 211938Z 2120/2202 02012KT P6SM FEW270 
     BECMG 2123/2201 07008KT RMK NXT FCST WILL BE ISSUED AT 221045Z
       
TAF CYGV 211938Z 2120/2208 26015KT P6SM SKC 
     BECMG 2123/2201 26007KT 
     FM220600 26007KT P6SM SCT070 RMK FCST BASED ON AUTO OBS. NXT FCST BY 220200Z
       
TAF CYGW 212338Z 2200/2212 22010G20KT P6SM SKC 
     FM220600 22012KT P6SM BKN120 
     FM221100 20012KT P6SM SCT030 BKN100 RMK FCST BASED ON AUTO OBS. NXT FCST BY 220600Z
       
TAF CYGX 220038Z 2201/2213 18006KT P6SM SCT080 
     FM220900 28008KT P6SM SCT012 
     TEMPO 2209/2213 2SM BR BKN012 
     PROB30 2209/2213 3/4SM BR RMK NXT FCST BY 220700Z
       
TAF CYHD 211938Z 2120/2208 17012G22KT P6SM BKN120 
     BECMG 2200/2202 17008KT 
     FM220400 17007KT P6SM -SHRA BKN040 
     TEMPO 2204/2208 5SM -SHRA BR 
     PROB30 2204/2208 VRB15G25KT 2SM TSRA BR BKN030CB RMK FCST BASED ON AUTO OBS. NXT FCST BY 220200Z
       
TAF CYHK 212338Z 2200/2212 04010KT P6SM OVC012 
     TEMPO 2200/2212 P6SM -SN OVC007 RMK NXT FCST BY 220600Z
       
TAF CYHM 212338Z 2200/2224 05008KT P6SM SKC 
     FM220500 05005KT 6SM BR FEW005 SCT120 
     TEMPO 2205/2208 3SM BR 
     PROB40 2205/2208 11/2SM BR 
     FM220800 VRB03KT 2SM BR FEW004 SCT060 
     PROB30 2208/2213 1/2SM FG 
     FM221300 06007KT P6SM SCT060 RMK NXT FCST BY 220600Z
       
TAF CYHU 212338Z 2200/2224 01007KT P6SM SCT240 RMK FCST BASED ON AUTO OBS. NXT FCST BY 220600Z
       
TAF CYHY 212345Z 2200/2212 06005KT P6SM BKN025 
     TEMPO 2200/2212 BKN020 RMK NXT FCST BY 220600Z
       
TAF CYHZ 212338Z 2200/2224 05010KT P6SM FEW030 BKN260 
     FM220900 06008KT P6SM -SHRA FEW020 BKN050 
     FM221600 07010KT P6SM SCT015 OVC025 
     FM222000 12009KT P6SM BKN030 RMK NXT FCST BY 220300Z
       
TAF CYIO 220038Z 2201/2213 15010KT P6SM OVC012 
     TEMPO 2201/2213 SCT015 RMK FCST BASED ON AUTO OBS. NXT FCST BY 220700Z
       
TAF CYIV 220038Z 2201/2213 20008KT P6SM SCT020 BKN060 OVC200 
     TEMPO 2201/2204 P6SM -SHRA BKN020 OVC060 
     FM220400 26006KT P6SM SCT012 
     TEMPO 2204/2213 BKN012 
     PROB30 2208/2213 2SM BR BKN006 RMK NXT FCST BY 220700Z
       
TAF CYJT 212338Z 2200/2224 36007KT P6SM SKC 
     BECMG 2200/2202 VRB03KT 
     FM221000 VRB03KT P6SM FEW020 SCT090 
     FM221500 26012KT P6SM SKC 
     BECMG 2222/2224 26008KT RMK NXT FCST BY 220600Z
       
TAF CYKA 220038Z 2201/2213 30010G20KT P6SM SCT080 BKN180 
     TEMPO 2201/2204 P6SM -SHRA BKN070 BKN180 
     BECMG 2204/2206 27008KT 
     FM220600 27008KT P6SM FEW080 SCT140 RMK NXT FCST BY 220700Z
       
TAF CYKF 211940Z 2120/2208 14007KT P6SM FEW030 
     TEMPO 2120/2122 5SM HZ 
     BECMG 2123/2201 10005KT 
     FM220500 09005KT P6SM BKN070 RMK FCST BASED ON AUTO OBS. NXT FCST BY 220200Z
       
TAF AMD CYKL 212341Z 2123/2208 13010KT P6SM -SHRA SCT008 OVC015 
     TEMPO 2123/2204 5SM -SHRA BR BKN008 OVC015 
     BECMG 2123/2201 22012G22KT 
     FM220400 27012G22KT P6SM SCT015 RMK FCST BASED ON AUTO OBS. NXT FCST BY 220200Z
       
TAF CYKZ 212338Z 2200/2212 10005KT P6SM FEW100 
     PROB30 2208/2212 2SM BR RMK NXT FCST BY 220600Z
       
TAF AMD CYLD 212007Z 2120/2201 03005KT P6SM SCT003 OVC012 
     TEMPO 2120/2201 4SM -DZ BR BKN003 OVC012 RMK NXT FCST WILL BE ISSUED AT 221145Z
       
TAF CYLL 212338Z 2200/2212 35010KT P6SM BKN015 BKN025 
     TEMPO 2200/2203 P6SM -RA SCT015 BKN025 
     FM220300 33008KT P6SM OVC012 
     TEMPO 2203/2212 4SM -DZ BR OVC006 RMK NXT FCST BY 220600Z
       
TAF CYLT 212330Z 2200/2212 VRB03KT P6SM SCT120 
     FM220600 VRB03KT P6SM FEW010 BKN025 OVC100 
     TEMPO 2206/2212 3SM -SN BKN010 OVC025 RMK NXT FCST BY 220600Z
       
TAF CYLW 220038Z 2201/2213 36006KT P6SM SCT080 BKN160 
     TEMPO 2201/2204 18006KT P6SM -SHRA BKN080 BKN160 
     BECMG 2204/2206 VRB03KT 
     FM220600 VRB03KT P6SM FEW080 SCT140 RMK FCST BASED ON AUTO OBS. NXT FCST BY 220700Z
       
TAF CYMA 212338Z 2200/2212 VRB03KT P6SM SCT030 BKN060 
     TEMPO 2200/2204 P6SM -SHRA 
     FM220800 02007KT P6SM SCT030 BKN050 
     TEMPO 2208/2212 P6SM -RA FEW020 OVC030 RMK NXT FCST BY 220600Z
       
TAF CYMH 211944Z 2120/2203 33015G30KT P6SM BKN020 
     TEMPO 2120/2203 BKN025 
     BECMG 2123/2201 33012KT RMK FCST BASED ON AUTO OBS. NXT FCST WILL BE ISSUED AT 220845Z
       
TAF CYMJ 212330Z 2200/2212 28010G20KT P6SM SCT050 BKN160 
     BECMG 2200/2202 28010KT 
     FM221000 30005KT P6SM SCT008 BKN160 
     TEMPO 2210/2212 4SM BR BKN008 OVC160 
     PROB30 2210/2212 1SM BR OVC003 RMK NXT FCST BY 220600Z
       
TAF CYMM 220038Z 2201/2213 34012KT P6SM SCT012 OVC025 
     TEMPO 2201/2213 5SM -RA BR OVC010 
     BECMG 2206/2208 27006KT RMK FCST BASED ON AUTO OBS. NXT FCST BY 220700Z
       
TAF CYMO 212338Z 2200/2212 10010KT P6SM SKC 
     FM220400 13006KT P6SM SKC 
     PROB30 2209/2212 1SM BR BKN004 RMK FCST BASED ON AUTO OBS. NXT FCST BY 220600Z
       
TAF CYMX 212338Z 2200/2224 VRB03KT P6SM SCT250 
     BECMG 2214/2216 08006KT RMK NXT FCST BY 220600Z
       
TAF CYNA 211938Z 2120/2208 26015KT P6SM SKC 
     BECMG 2122/2124 26008KT RMK FCST BASED ON AUTO OBS. NXT FCST BY 220200Z
       
TAF CYND 211738Z 2118/2201 09005KT P6SM FEW250 
     BECMG 2121/2123 VRB03KT RMK NXT FCST WILL BE ISSUED AT 221245Z
       
TAF CYNE 220038Z 2201/2213 20006KT P6SM BKN200 
     FM220400 VRB03KT P6SM FEW030 
     FM220800 30006KT P6SM FEW012 
     PROB40 2208/2213 1/2SM FG RMK FCST BASED ON AUTO OBS. NXT FCST BY 220700Z
       
TAF CYOC 211738Z 2118/2201 04015G25KT P6SM BKN030 
     TEMPO 2121/2201 5SM -RASN BR OVC020 RMK NXT FCST WILL BE ISSUED AT 221445Z
       
TAF CYOD 212330Z 2200/2224 34012KT P6SM SCT012 BKN030 
     TEMPO 2200/2216 5SM -RA BR SCT006 BKN012 OVC030 
     BECMG 2201/2203 35006KT 
     FM222100 03008KT P6SM BKN040 RMK NXT FCST BY 220300Z
       
TAF CYOJ 220038Z 2201/2213 36008KT P6SM FEW025 RMK NXT FCST BY 220700Z
       
TAF CYOW 212338Z 2200/2224 09005KT P6SM FEW220 
     BECMG 2200/2202 VRB03KT 
     BECMG 2214/2216 08006KT RMK NXT FCST BY 220300Z
       
TAF CYOY 212330Z 2200/2212 VRB03KT P6SM FEW180 FEW240 RMK FCST BASED ON AUTO OBS 220100-221200Z. NXT FCST BY 220600Z
       
TAF CYPA 220038Z 2201/2213 28006KT P6SM BKN040 
     TEMPO 2201/2208 BKN020 
     FM220800 34006KT P6SM OVC020 
     TEMPO 2208/2213 OVC008 RMK NXT FCST BY 220700Z
       
TAF CYPE 220038Z 2201/2213 01005KT P6SM FEW030 SCT250 
     FM221000 VRB03KT P6SM SKC 
     PROB30 2210/2213 1/2SM FZFG RMK NXT FCST BY 220700Z
       
TAF CYPG 211730Z 2118/2206 18010KT P6SM -SHRA BKN080 OVC160 
     FM212000 04010KT P6SM SCT080 BKN160 
     FM212300 01015KT P6SM BKN050 
     BECMG 2204/2206 32010KT RMK NXT FCST BY 220000Z
       
TAF CYPH 212338Z 2200/2212 27025G35KT P6SM OVC012 
     TEMPO 2200/2204 5SM -RA BR OVC006 
     BECMG 2202/2204 31020G30KT 
     FM220400 31015G25KT P6SM BKN008 OVC012 
     TEMPO 2204/2206 OVC012 
     FM220600 32015KT P6SM OVC015 
     BECMG 2208/2210 33007KT 
     BECMG 2210/2212 16005KT RMK FCST BASED ON AUTO OBS. NXT FCST BY 220600Z
       
TAF CYPL 211938Z 2120/2202 22010KT P6SM BKN120 
     BECMG 2120/2122 14010KT RMK NXT FCST WILL BE ISSUED AT 221245Z
       
TAF CYPQ 211938Z 2120/2202 16007KT P6SM SCT030 
     BECMG 2122/2124 VRB03KT RMK FCST BASED ON AUTO OBS. NXT FCST WILL BE ISSUED AT 220945Z
       
TAF CYPR 220038Z 2201/2213 VRB03KT P6SM SKC 
     FM220600 VRB03KT P6SM BKN100 
     FM221000 VRB03KT P6SM SCT006 BKN050 
     PROB30 2210/2213 1SM -RA BR BKN006 BKN050 RMK FCST BASED ON AUTO OBS. NXT FCST BY 220700Z
       
TAF CYPX 212338Z 2200/2212 07025G35KT 2SM -RA BR OVC007 
     TEMPO 2200/2206 6SM -RA SCT007 OVC025 
     BECMG 2202/2204 01015G25KT 
     FM220600 35010KT P6SM SCT012 BKN030 
     TEMPO 2206/2212 5SM -RA BR BKN012 
     BECMG 2207/2209 01005KT RMK FCST BASED ON AUTO OBS. NXT FCST BY 220600Z
       
TAF CYPY 212345Z 2200/2206 02010KT P6SM OVC030 
     TEMPO 2200/2206 P6SM -RA BKN020 OVC100 RMK FCST BASED ON AUTO OBS. NXT FCST WILL BE ISSUED AT 221145Z
       
TAF AMD CYQA 212338Z 2123/2202 VRB03KT P6SM SCT030 
     TEMPO 2123/2202 2SM BR RMK FCST BASED ON AUTO OBS. NXT FCST WILL BE ISSUED AT 221145Z
       
TAF CYQB 212338Z 2200/2224 08005KT P6SM FEW220 
     BECMG 2200/2202 VRB03KT 
     BECMG 2215/2217 22007KT RMK NXT FCST BY 220600Z
       
TAF CYQD 220038Z 2201/2213 26012KT P6SM FEW050 
     FM220400 30008KT P6SM BKN020 
     TEMPO 2204/2213 BKN008 RMK NXT FCST BY 220700Z
       
TAF CYQF 212338Z 2200/2212 32010G20KT P6SM -RASN BKN020 OVC060 
     FM220400 34010KT 6SM -RASN SCT006 OVC012 
     TEMPO 2204/2212 2SM -SHSN BR OVC006 RMK NXT FCST BY 220600Z
       
TAF CYQG 212338Z 2200/2224 13005KT P6SM SCT050 
     PROB30 2200/2203 VRB15G25KT 2SM TSRA BR BKN020 OVC050CB 
     FM220300 11005KT P6SM SCT120 
     FM220500 VRB03KT P6SM BKN070 
     PROB30 2209/2214 VRB15G25KT 2SM TSRA BR BKN020 OVC040CB 
     FM221400 VRB03KT P6SM SKC 
     BECMG 2218/2220 13007KT 
     FM222300 13007KT P6SM SCT040 
     PROB30 2223/2224 2SM TSRA BR BKN040CB RMK NXT FCST BY 220600Z
       
TAF CYQH 212338Z 2200/2212 13005KT P6SM FEW060 SCT220 
     FM220900 VRB03KT P6SM SCT050 BKN110 OVC220 
     TEMPO 2209/2212 P6SM -RA RMK NXT FCST BY 220600Z
       
TAF CYQI 212338Z 2200/2212 09015G25KT P6SM BKN040 OVC250 
     TEMPO 2200/2205 P6SM -SHRA 
     FM220500 07015G25KT P6SM -SHRA OVC015 
     TEMPO 2205/2212 P6SM NSW FEW015 OVC030 RMK NXT FCST BY 220600Z
       
TAF CYQK 211938Z 2120/2208 17012G22KT P6SM BKN090 
     FM220000 17012G22KT P6SM BKN080 
     PROB30 2200/2201 3SM TSRA BR BKN080CB 
     FM220100 16008KT P6SM BKN080 
     PROB30 2201/2203 3SM TSRA BR BKN080CB 
     FM220600 15006KT P6SM -SHRA BKN040 
     PROB30 2206/2208 VRB15G25KT 2SM TSRA BR BKN030CB RMK NXT FCST BY 220200Z
       
TAF CYQL 212338Z 2200/2212 32010G20KT P6SM SCT030 BKN080 
     TEMPO 2200/2205 BKN030 
     FM220500 28010KT P6SM OVC025 
     TEMPO 2205/2212 4SM -DZ BR OVC010 RMK NXT FCST BY 220600Z
       
TAF CYQM 212338Z 2200/2224 06006KT P6SM FEW040 SCT260 
     FM220600 05005KT P6SM FEW002 
     PROB30 2206/2211 1/2SM FG VV002 
     FM221200 03006KT P6SM FEW012 
     BECMG 2222/2224 10005KT RMK NXT FCST BY 220600Z
       
TAF CYQQ 212339Z 2200/2224 VRB03KT P6SM FEW090 FEW250 
     FM221800 VRB03KT P6SM BKN120 RMK NXT FCST BY 220600Z
       
TAF CYQR 212341Z 2200/2224 30010KT P6SM FEW120 SCT200 
     FM220800 28006KT P6SM SCT012 
     TEMPO 2208/2216 4SM BR SCT006 BKN012 
     PROB40 2210/2216 30006KT 1SM BR OVC004 
     FM221600 35010KT P6SM SCT015 OVC060 
     TEMPO 2216/2224 4SM -SHRA BR BKN015 OVC060 RMK NXT FCST BY 220600Z
       
TAF CYQT 211938Z 2120/2208 17008KT P6SM SKC 
     BECMG 2123/2201 VRB03KT 
     FM220300 VRB03KT 2SM BR SCT002 
     FM220600 VRB03KT 1SM BR BKN002 
     TEMPO 2206/2208 2SM -SHRA BR 
     PROB30 2206/2208 VRB15G25KT 2SM TSRA BR BKN002 BKN030CB RMK NXT FCST BY 220200Z
       
TAF CYQU 220038Z 2201/2213 29006KT P6SM SCT040 BKN100 BKN240 
     FM220300 26006KT P6SM SCT030 SCT240 RMK NXT FCST BY 220700Z
       
TAF CYQV 212341Z 2200/2206 26010KT P6SM SCT200 RMK FCST BASED ON AUTO OBS. NXT FCST WILL BE ISSUED AT 221145Z
       
TAF CYQW 212341Z 2200/2212 32010KT P6SM SCT020 BKN040 
     TEMPO 2200/2208 BKN020 OVC040 
     FM220800 33006KT P6SM OVC020 
     TEMPO 2208/2212 4SM BR OVC008 
     PROB30 2210/2212 2SM BR BKN004 OVC008 RMK FCST BASED ON AUTO OBS. NXT FCST BY 220600Z
       
TAF CYQX 212338Z 2200/2224 30010KT P6SM BKN040 
     FM220300 30006KT P6SM FEW030 
     FM220600 VRB03KT P6SM SKC 
     PROB30 2206/2211 1/2SM FG VV002 
     FM221300 26010G20KT P6SM SKC 
     FM221500 27012G22KT P6SM FEW050 RMK NXT FCST BY 220600Z
       
TAF CYQY 212338Z 2200/2212 02008KT P6SM FEW030 FEW250 
     FM220600 VRB03KT P6SM SKC 
     PROB30 2206/2211 11/2SM BR RMK NXT FCST BY 220600Z
       
TAF CYQZ 220038Z 2201/2206 34012G22KT P6SM SCT060 
     TEMPO 2201/2204 BKN060 
     FM220400 VRB03KT P6SM FEW080 RMK FCST BASED ON AUTO OBS. NXT FCST WILL BE ISSUED AT 221145Z
       
TAF AMD CYRB 220015Z 2200/2224 VRB03KT P6SM SCT006 
     TEMPO 2200/2206 BKN005 
     BECMG 2202/2204 30008KT 
     FM220600 30012KT P6SM SCT008 OVC012 
     TEMPO 2206/2224 4SM -SN BR OVC008 
     PROB30 2206/2212 2SM -FZDZ BR OVC005 RMK NXT FCST BY 220600Z
       
TAF CYRJ 211938Z 2120/2202 VRB03KT P6SM SKC 
     FM220000 24008KT P6SM BKN060 RMK NXT FCST WILL BE ISSUED AT 221145Z
       
TAF CYRL 211938Z 2120/2202 16012G22KT P6SM BKN090 
     BECMG 2120/2122 13008KT RMK NXT FCST WILL BE ISSUED AT 221045Z
       
TAF CYRQ 211938Z 2120/2208 07008KT P6SM FEW240 
     BECMG 2123/2201 VRB03KT RMK FCST BASED ON AUTO OBS. NXT FCST BY 220200Z
       
TAF CYRT 212338Z 2200/2212 06015G25KT P6SM SCT015 OVC120 
     TEMPO 2200/2212 6SM -RA BR SCT008 OVC012 RMK NXT FCST BY 220600Z
       
TAF CYSB 211938Z 2120/2208 18010KT P6SM SCT030 BKN120 
     BECMG 2121/2123 15008KT 
     FM220200 14006KT P6SM BKN040 RMK NXT FCST BY 220200Z
       
TAF CYSC 212338Z 2200/2203 VRB03KT P6SM SKC RMK FCST BASED ON AUTO OBS. NXT FCST WILL BE ISSUED AT 221045Z
       
TAF CYSF 212345Z 2200/2212 04006G16KT P6SM BKN025 OVC040 
     TEMPO 2200/2212 5SM -RA BR SCT005 OVC020 RMK FCST BASED ON AUTO OBS. NXT FCST BY 220600Z
       
TAF CYSJ 212338Z 2200/2212 05006KT P6SM BKN280 RMK NXT FCST BY 220600Z
       
TAF CYSM 212345Z 2200/2212 01005KT P6SM SCT040 
     BECMG 2201/2203 VRB03KT RMK NXT FCST BY 220600Z
       
TAF CYSN 211940Z 2120/2201 02008KT P6SM SKC 
     BECMG 2123/2201 11007KT RMK NXT FCST WILL BE ISSUED AT 221245Z
       
TAF CYTE 220038Z 2201/2213 08010KT P6SM SCT015 OVC025 
     TEMPO 2201/2213 5SM -RA BR OVC008 RMK FCST BASED ON AUTO OBS. NXT FCST BY 220700Z
       
TAF CYTH 220038Z 2201/2213 30006KT P6SM SCT040 
     TEMPO 2201/2204 BKN040 
     FM220400 28006KT P6SM SCT012 OVC030 
     TEMPO 2204/2208 OVC012 
     FM220800 30008KT P6SM OVC015 
     TEMPO 2208/2213 3SM BR OVC006 RMK NXT FCST BY 220700Z
       
TAF CYTL 211938Z 2120/2208 21012G22KT P6SM SCT080 
     TEMPO 2120/2121 BKN080 
     FM212100 20012G22KT P6SM SCT080 BKN180 
     TEMPO 2121/2207 BKN080 
     BECMG 2200/2202 20007KT 
     FM220700 VRB03KT P6SM -SHRA BKN030 RMK FCST BASED ON AUTO OBS. NXT FCST BY 220200Z
       
TAF CYTR 212330Z 2200/2224 20005KT P6SM FEW250 
     BECMG 2200/2202 05005KT 
     BECMG 2217/2219 21008KT 
     FM221900 21008KT P6SM FEW080 
     BECMG 2222/2224 VRB03KT RMK NXT FCST BY 220600Z
       
TAF AMD CYTS 212308Z 2123/2208 VRB03KT P6SM SCT012 BKN060 
     TEMPO 2123/2206 5SM -DZ BR BKN012 
     FM220600 VRB03KT 6SM BR SCT005 OVC010 
     TEMPO 2206/2208 2SM -DZ BR OVC005 
     PROB30 2206/2208 1/2SM FG OVC002 RMK NXT FCST BY 220200Z
       
TAF CYTZ 211940Z 2120/2220 08007KT P6SM SKC 
     BECMG 2200/2202 08005KT 
     FM221200 07007KT P6SM BKN070 RMK FCST BASED ON AUTO OBS. NXT FCST BY 220200Z
       
TAF CYUB 220038Z 2201/2205 04012G22KT 3/4SM -RA BR OVC003 
     TEMPO 2201/2205 3SM BR OVC006 RMK NXT FCST WILL BE ISSUED AT 221445Z
       
TAF CYUL 212338Z 2200/2224 03010KT P6SM SCT240 
     BECMG 2216/2218 06008KT RMK NXT FCST BY 220300Z
       
TAF CYUX 220038Z 2201/2213 01008KT P6SM FEW005 
     BECMG 2202/2204 33012KT RMK NXT FCST BY 220700Z
       
TAF CYUY 212338Z 2200/2212 VRB03KT P6SM SCT020 BKN090 
     TEMPO 2200/2203 BKN020 
     FM220300 13005KT P6SM BKN025 
     TEMPO 2203/2212 BKN020 
     PROB30 2203/2212 2SM BR BKN006 RMK NXT FCST BY 220600Z
       
TAF CYVC 220038Z 2201/2213 33010KT P6SM SCT015 OVC040 
     TEMPO 2201/2207 4SM -DZ BR OVC015 
     FM220700 34006KT P6SM OVC015 
     TEMPO 2207/2213 4SM BR OVC008 RMK NXT FCST BY 220700Z
       
TAF CYVM 220038Z 2201/2213 VRB03KT P6SM SCT020 OVC040 RMK FCST BASED ON AUTO OBS. NXT FCST BY 220700Z
       
TAF CYVO 212338Z 2200/2212 VRB03KT P6SM SCT030 BKN230 
     FM220300 14005KT P6SM BKN025 
     TEMPO 2203/2212 BKN020 
     PROB30 2203/2212 2SM BR BKN006 RMK NXT FCST BY 220600Z
       
TAF CYVP 212338Z 2200/2212 12005KT P6SM SCT020 OVC070 
     TEMPO 2200/2203 P6SM -SHRA OVC020 
     BECMG 2200/2202 26010KT 
     FM220300 26012G22KT P6SM SCT030 
     TEMPO 2203/2206 BKN030 
     FM220600 24012G22KT P6SM OVC030 
     TEMPO 2206/2212 P6SM -RA OVC020 RMK NXT FCST BY 220600Z
       
TAF CYVQ 212345Z 2200/2212 VRB03KT P6SM FEW007 BKN020 
     TEMPO 2200/2209 SCT025 
     FM220900 10005KT P6SM FEW007 OVC020 
     TEMPO 2209/2212 2SM -DZ BR OVC007 RMK NXT FCST BY 220600Z
       
TAF CYVR 212338Z 2200/2306 26006KT P6SM FEW040 SCT080 BKN100 
     FM220600 09006KT P6SM SCT080 
     FM221200 VRB03KT P6SM FEW100 
     BECMG 2217/2219 28010KT 
     FM222300 27008KT P6SM FEW140 BKN210 RMK NXT FCST BY 220300Z
       
TAF CYVT 220038Z 2201/2204 03012G22KT P6SM -RA BKN015 OVC040 
     TEMPO 2201/2204 5SM -RA BR BKN008 OVC012 RMK NXT FCST WILL BE ISSUED AT 221345Z
       
TAF CYWA 212330Z 2200/2212 14005KT P6SM FEW030 
     BECMG 2200/2202 VRB03KT 
     FM220900 VRB03KT P6SM SCT050 
     TEMPO 2209/2212 3SM BR BKN010 RMK FCST BASED ON AUTO OBS. NXT FCST BY 220600Z
       
TAF AMD CYWE 212057Z 2120/2201 12005KT P6SM BKN025 
     TEMPO 2120/2201 OVC009 RMK FCST BASED ON AUTO OBS. NXT FCST WILL BE ISSUED AT 221245Z
       
TAF CYWG 212341Z 2200/2224 02012KT P6SM BKN070 
     BECMG 2202/2204 30008KT 
     FM220800 34010KT P6SM FEW020 
     PROB30 2208/2214 1SM BR 
     FM221400 02015KT P6SM FEW200 
     FM221800 03015G25KT P6SM BKN080 
     PROB30 2218/2224 VRB25G35KT 4SM TSRA OVC080CB RMK NXT FCST BY 220600Z
       
TAF CYWH 212338Z 2200/2204 22005KT P6SM FEW030 FEW100 FEW240 
     FM220100 22005KT P6SM FEW030 SCT080 
     BECMG 2201/2203 VRB03KT RMK NXT FCST WILL BE ISSUED AT 221415Z
       
TAF CYWK 211944Z 2120/2208 18012KT P6SM FEW050 SCT140 
     FM212200 21012KT P6SM FEW015 BKN040 
     TEMPO 2122/2204 5SM -SHRA BR BKN015 OVC040 
     FM220400 27010G20KT P6SM SCT015 RMK NXT FCST BY 220200Z
       
TAF CYWL 220038Z 2201/2213 30012G22KT P6SM FEW040 
     BECMG 2206/2208 VRB03KT RMK NXT FCST BY 220700Z
       
TAF CYXC 220038Z 2201/2213 34006KT P6SM FEW025 BKN090 
     BECMG 2203/2205 27005KT 
     FM220800 27005KT P6SM -RA SCT020 BKN040 OVC080 
     TEMPO 2208/2213 5SM -SHRA BR BKN020 OVC040 RMK NXT FCST BY 220700Z
       
TAF CYXE 212341Z 2200/2224 28012KT P6SM BKN030 
     TEMPO 2200/2208 BKN020 
     FM220800 VRB03KT P6SM SCT008 BKN015 
     TEMPO 2208/2220 4SM BR SCT004 BKN008 OVC015 
     PROB30 2210/2216 1SM BR OVC004 
     FM222000 33008KT P6SM BKN025 RMK NXT FCST BY 220600Z
       
TAF CYXH 212338Z 2200/2212 28010G20KT P6SM BKN040 
     FM220700 26008KT P6SM OVC025 
     TEMPO 2207/2212 4SM -DZ BR OVC010 RMK NXT FCST BY 220600Z
       
TAF CYXJ 220038Z 2201/2213 32012KT P6SM FEW030 SCT220 
     BECMG 2208/2210 13005KT RMK NXT FCST BY 220700Z
       
TAF CYXL 211938Z 2120/2208 18008KT P6SM BKN130 
     FM220500 VRB03KT P6SM -SHRA BKN040 
     TEMPO 2205/2208 5SM -SHRA BR 
     PROB30 2205/2208 VRB15G25KT 2SM TSRA BR BKN030CB RMK NXT FCST BY 220200Z
       
TAF CYXS 220038Z 2201/2213 36008KT P6SM SCT060 
     TEMPO 2201/2204 BKN060 
     FM220400 VRB03KT P6SM FEW080 RMK FCST BASED ON AUTO OBS. NXT FCST BY 220700Z
       
TAF CYXT 220038Z 2201/2213 VRB03KT P6SM FEW080 SCT160 
     FM220900 VRB03KT P6SM SCT060 BKN120 OVC220 RMK NXT FCST BY 220700Z
       
TAF CYXU 212338Z 2200/2224 15005KT P6SM SKC 
     BECMG 2203/2205 VRB03KT 
     FM221100 VRB03KT P6SM BKN060 
     FM221400 12008KT P6SM FEW040 RMK NXT FCST BY 220600Z
       
TAF CYXX 212338Z 2200/2224 30006KT P6SM SCT050 BKN100 
     BECMG 2203/2205 VRB03KT 
     FM220600 VRB03KT P6SM SCT100 
     FM222000 22008KT P6SM FEW100 RMK NXT FCST BY 220600Z
       
TAF CYXY 212338Z 2200/2224 16010KT P6SM FEW030 BKN140 OVC240 
     FM220400 16010KT P6SM FEW040 BKN080 OVC140 
     TEMPO 2204/2209 P6SM -SHRA BKN040 
     FM220900 16010KT P6SM BKN020 BKN060 
     FM221800 16012KT P6SM FEW030 SCT070 RMK NXT FCST BY 220600Z
       
TAF CYYB 211938Z 2120/2208 25008KT P6SM FEW030 SCT120 
     FM220000 VRB03KT P6SM BKN070 RMK NXT FCST BY 220200Z
       
TAF CYYC 212338Z 2200/2224 32010G20KT P6SM FEW015 BKN040 
     TEMPO 2200/2202 P6SM -RA BKN015 OVC030 
     FM220200 34012KT P6SM OVC012 
     TEMPO 2202/2206 4SM -RA BR OVC006 
     FM220600 34012KT 4SM -RASN BR OVC006 
     TEMPO 2206/2214 3/4SM -SHSN BR OVC004 
     FM221400 34008KT 4SM -RASN BR OVC008 
     TEMPO 2214/2224 P6SM NSW OVC010 RMK NXT FCST BY 220300Z
       
TAF CYYD 220038Z 2201/2206 VRB03KT P6SM FEW070 SCT110 RMK NXT FCST WILL BE ISSUED AT 221345Z
       
TAF CYYE 220038Z 2201/2213 VRB03KT P6SM FEW080 
     PROB30 2211/2213 1/2SM FG RMK NXT FCST BY 220700Z
       
TAF CYYF 220038Z 2201/2213 36005KT P6SM SCT080 BKN250 
     TEMPO 2201/2204 P6SM -SHRA BKN070 BKN250 
     BECMG 2204/2206 VRB03KT 
     FM220600 VRB03KT P6SM FEW080 SCT140 RMK NXT FCST BY 220700Z
       
TAF CYYG 212338Z 2200/2212 04005KT P6SM FEW015 FEW240 
     FM220600 07005KT 6SM BR SKC 
     FM221100 11005KT P6SM SKC RMK NXT FCST BY 220600Z
       
TAF CYYH 212338Z 2200/2212 33005KT P6SM FEW012 RMK NXT FCST BY 220600Z
       
TAF CYYJ 212338Z 2200/2224 11006KT P6SM FEW040 SCT080 
     BECMG 2201/2203 VRB03KT 
     FM221200 VRB03KT P6SM FEW080 
     BECMG 2217/2219 11007KT RMK NXT FCST BY 220600Z
       
TAF CYYL 220038Z 2201/2213 33008KT P6SM OVC025 
     TEMPO 2201/2205 2SM -RA BR SCT008 OVC012 
     FM220500 34010G20KT P6SM OVC015 
     TEMPO 2205/2213 2SM -SHRA BR OVC006 RMK FCST BASED ON AUTO OBS. NXT FCST BY 220700Z
       
TAF CYYN 212341Z 2200/2212 28012G22KT P6SM BKN040 
     TEMPO 2200/2210 BKN020 
     FM221000 28008KT P6SM BKN020 
     TEMPO 2210/2212 BKN008 RMK FCST BASED ON AUTO OBS. NXT FCST BY 220600Z
       
TAF AMD CYYQ 220019Z 2200/2224 06012G22KT P6SM -SHRA FEW003 OVC060 
     TEMPO 2200/2203 2SM TSRA BR BKN003 OVC060 
     FM220300 06012KT 6SM BR OVC012 
     TEMPO 2203/2212 2SM -SHRA BR OVC003 
     FM221200 04015KT 2SM BR OVC003 
     TEMPO 2212/2218 4SM -SHRA BR OVC010 
     FM221800 03018KT 6SM BR OVC012 RMK NXT FCST BY 220600Z
       
TAF CYYR 212330Z 2200/2224 06008KT P6SM SCT050 
     TEMPO 2200/2205 BKN050 
     FM220500 21008KT P6SM SCT040 OVC080 
     TEMPO 2205/2208 P6SM -SHRA BKN040 OVC080 
     FM220800 25010KT P6SM SCT040 
     BECMG 2213/2215 27015G25KT 
     BECMG 2215/2217 27020G32KT 
     FM222200 27012KT P6SM FEW050 RMK NXT FCST BY 220600Z
       
TAF CYYT 212338Z 2200/2224 33012KT P6SM SCT040 
     FM221100 28010KT P6SM FEW020 
     BECMG 2212/2214 27012G22KT SKC 
     FM221800 26015G25KT P6SM SKC RMK NXT FCST BY 220600Z
       
TAF CYYU 211938Z 2120/2208 VRB03KT P6SM FEW025 
     FM220200 14005KT P6SM SCT012 
     FM220400 14005KT P6SM BKN012 
     PROB30 2204/2208 2SM BR BKN006 RMK NXT FCST BY 220200Z
       
TAF CYYY 211938Z 2120/2208 05006KT P6SM SKC 
     BECMG 2202/2204 15005KT 
     FM220700 16005KT P6SM BKN050 RMK NXT FCST BY 220200Z
       
TAF CYYZ 212338Z 2200/2306 12005KT P6SM FEW100 
     PROB30 2208/2212 2SM BR 
     FM221200 11005KT P6SM BKN050 
     FM222000 15007KT P6SM FEW060 
     BECMG 2300/2302 VRB03KT RMK NXT FCST BY 220300Z
       
TAF CYZF 212345Z 2200/2224 VRB03KT P6SM OVC030 
     TEMPO 2200/2212 BKN020 
     FM221200 06012KT P6SM BKN025 RMK NXT FCST BY 220600Z
       
TAF CYZH 220038Z 2201/2213 33008KT P6SM SCT015 OVC040 
     TEMPO 2201/2209 P6SM -RA BKN015 OVC030 
     FM220900 28005KT P6SM SCT030 RMK FCST BASED ON AUTO OBS. NXT FCST BY 220700Z
       
TAF CYZP 220038Z 2201/2213 VRB03KT P6SM SKC 
     FM220600 33008KT P6SM BKN080 
     FM221000 VRB03KT P6SM BKN040 
     TEMPO 2210/2213 P6SM -RA RMK FCST BASED ON AUTO OBS. NXT FCST BY 220700Z
       
TAF CYZR 211940Z 2120/2202 15010KT P6SM FEW030 
     TEMPO 2120/2122 5SM HZ 
     FM220000 14012KT P6SM SCT140 
     PROB30 2200/2202 2SM TSRA BR BKN050CB RMK FCST BASED ON AUTO OBS. NXT FCST WILL BE ISSUED AT 220745Z
       
TAF CYZS 220038Z 2201/2213 06015G25KT P6SM SCT015 
     TEMPO 2201/2213 BKN015 RMK NXT FCST BY 220700Z
       
TAF CYZT 220038Z 2201/2213 32008KT P6SM SCT220 
     BECMG 2203/2205 VRB03KT RMK NXT FCST BY 220700Z
       
TAF CYZV 212338Z 2200/2224 VRB03KT P6SM FEW120 
     FM220300 VRB03KT P6SM SCT040 BKN080 
     FM221000 VRB03KT P6SM FEW030 
     BECMG 2214/2216 20008KT 
     BECMG 2222/2224 07005KT RMK NXT FCST BY 220600Z
       
TAF CYZW 211738Z 2118/2201 VRB03KT P6SM FEW080 SCT220 RMK NXT FCST WILL BE ISSUED AT 221445Z
       
TAF CYZX 212330Z 2200/2224 05008KT P6SM SCT250 
     FM220800 05008KT P6SM -SHRA BKN050 
     FM221200 05010KT P6SM -SHRA SCT012 OVC025 
     FM222200 09008KT 6SM -RA BR SCT010 OVC020 RMK NXT FCST BY 220600Z
       
TAF CYZY 220038Z 2201/2209 35005KT P6SM BKN070 
     BECMG 2203/2205 FEW080 RMK FCST BASED ON AUTO OBS. NXT FCST BY 220700Z
       
TAF CYEK 212338Z 2200/2212 06020G30KT P6SM OVC012 
     TEMPO 2200/2212 3SM -RA BR OVC007 RMK FCST BASED ON AUTO OBS. NXT FCST BY 220600Z
       
TAF CYBG 212330Z 2200/2224 10005KT P6SM SKC 
     FM220600 10008KT P6SM BKN050 
     FM222200 08008KT P6SM SCT050 RMK NXT FCST BY 220300Z
       
TAF CYBC 211938Z 2120/2208 10005KT P6SM SKC 
     BECMG 2200/2202 VRB03KT 
     FM220600 VRB03KT P6SM SCT030 BKN050 RMK FCST BASED ON AUTO OBS. NXT FCST BY 220200Z
       
TAF CYBK 212338Z 2200/2212 03008KT P6SM SCT012 
     TEMPO 2200/2212 BKN012 RMK NXT FCST BY 220600Z
       
TAF CZBF 211938Z 2120/2203 12005KT P6SM FEW220 
     BECMG 2200/2202 20005KT FEW010 RMK NXT FCST WILL BE ISSUED AT 220845Z
       
TAF CYBR 212341Z 2200/2212 32008KT P6SM SCT120 BKN200 
     BECMG 2204/2206 FEW200 RMK NXT FCST BY 220600Z
       
TAF CYVT 220038Z 2201/2204 03012G22KT P6SM -RA BKN015 OVC040 
     TEMPO 2201/2204 5SM -RA BR BKN008 OVC012 RMK NXT FCST WILL BE ISSUED AT 221345Z
       
TAF CYDB 212338Z 2200/2212 12012G22KT P6SM FEW060 SCT120 BKN220 RMK NXT FCST BY 220600Z
       
TAF CYYC 212338Z 2200/2224 32010G20KT P6SM FEW015 BKN040 
     TEMPO 2200/2202 P6SM -RA BKN015 OVC030 
     FM220200 34012KT P6SM OVC012 
     TEMPO 2202/2206 4SM -RA BR OVC006 
     FM220600 34012KT 4SM -RASN BR OVC006 
     TEMPO 2206/2214 3/4SM -SHSN BR OVC004 
     FM221400 34008KT 4SM -RASN BR OVC008 
     TEMPO 2214/2224 P6SM NSW OVC010 RMK NXT FCST BY 220300Z
       
TAF CYBW 212338Z 2200/2204 31015KT P6SM SCT015 BKN025 OVC050 
     TEMPO 2200/2202 P6SM -RA BKN012 OVC025 
     FM220200 34012KT P6SM OVC012 
     TEMPO 2202/2204 4SM -RA BR OVC006 RMK FCST BASED ON AUTO OBS. NXT FCST WILL BE ISSUED AT 221145Z
       
TAF CYCB 220038Z 2201/2213 06006KT P6SM SCT006 OVC010 
     TEMPO 2201/2213 5SM -SN BR OVC006 RMK NXT FCST BY 220700Z
       
TAF CYBL 220038Z 2201/2204 VRB03KT P6SM FEW030 FEW250 RMK NXT FCST WILL BE ISSUED AT 221445Z
       
TAF CYTE 220038Z 2201/2213 08010KT P6SM SCT015 OVC025 
     TEMPO 2201/2213 5SM -RA BR OVC008 RMK FCST BASED ON AUTO OBS. NXT FCST BY 220700Z
       
TAF CYCG 220038Z 2201/2204 35005KT P6SM FEW050 SCT080 BKN160 
     TEMPO 2201/2204 P6SM -SHRA FEW050 BKN080 OVC160 RMK NXT FCST WILL BE ISSUED AT 221445Z
       
TAF AMD CYLD 212007Z 2120/2201 03005KT P6SM SCT003 OVC012 
     TEMPO 2120/2201 4SM -DZ BR BKN003 OVC012 RMK NXT FCST WILL BE ISSUED AT 221145Z
       
TAF CYYG 212338Z 2200/2212 04005KT P6SM FEW015 FEW240 
     FM220600 07005KT 6SM BR SKC 
     FM221100 11005KT P6SM SKC RMK NXT FCST BY 220600Z
       
TAF AMD CYYQ 220019Z 2200/2224 06012G22KT P6SM -SHRA FEW003 OVC060 
     TEMPO 2200/2203 2SM TSRA BR BKN003 OVC060 
     FM220300 06012KT 6SM BR OVC012 
     TEMPO 2203/2212 2SM -SHRA BR OVC003 
     FM221200 04015KT 2SM BR OVC003 
     TEMPO 2212/2218 4SM -SHRA BR OVC010 
     FM221800 03018KT 6SM BR OVC012 RMK NXT FCST BY 220600Z
       
TAF CZUM 211944Z 2120/2208 VRB03KT P6SM BKN025 
     TEMPO 2120/2124 BKN020 
     BECMG 2122/2124 19006KT 
     FM220000 19006KT P6SM BKN040 
     TEMPO 2200/2206 P6SM -SHRA BKN020 OVC040 
     BECMG 2202/2204 27010G20KT 
     FM220600 27010G20KT P6SM SCT015 RMK FCST BASED ON AUTO OBS. NXT FCST BY 220200Z
       
TAF CYCY 220038Z 2201/2213 35015G25KT P6SM SCT020 OVC030 
     TEMPO 2201/2213 3SM -SN -FZDZ OVC020 RMK FCST BASED ON AUTO OBS. NXT FCST BY 220700Z
       
TAF CYOD 212330Z 2200/2224 34012KT P6SM SCT012 BKN030 
     TEMPO 2200/2216 5SM -RA BR SCT006 BKN012 OVC030 
     BECMG 2201/2203 35006KT 
     FM222100 03008KT P6SM BKN040 RMK NXT FCST BY 220300Z
       
TAF CYQQ 212339Z 2200/2224 VRB03KT P6SM FEW090 FEW250 
     FM221800 VRB03KT P6SM BKN120 RMK NXT FCST BY 220600Z
       
TAF CYZS 220038Z 2201/2213 06015G25KT P6SM SCT015 
     TEMPO 2201/2213 BKN015 RMK NXT FCST BY 220700Z
       
TAF CYXC 220038Z 2201/2213 34006KT P6SM FEW025 BKN090 
     BECMG 2203/2205 27005KT 
     FM220800 27005KT P6SM -RA SCT020 BKN040 OVC080 
     TEMPO 2208/2213 5SM -SHRA BR BKN020 OVC040 RMK NXT FCST BY 220700Z
       
TAF CYDN 212341Z 2200/2212 26005KT P6SM SCT120 BKN200 
     BECMG 2202/2204 26008KT FEW200 RMK FCST BASED ON AUTO OBS. NXT FCST BY 220600Z
       
TAF CYDA 212338Z 2200/2203 VRB03KT P6SM SCT040 BKN080 RMK NXT FCST WILL BE ISSUED AT 221445Z
       
TAF CYDQ 220038Z 2201/2205 32005KT P6SM FEW030 RMK FCST BASED ON AUTO OBS. NXT FCST WILL BE ISSUED AT 221245Z
       
TAF CYDL 212338Z 2200/2202 24007KT P6SM FEW060 RMK FCST BASED ON AUTO OBS. NXT FCST WILL BE ISSUED AT 221545Z
       
TAF CYDF 211944Z 2120/2208 28012KT P6SM SCT040 
     BECMG 2122/2124 VRB03KT 
     FM220600 VRB03KT P6SM SKC 
     PROB30 2206/2208 1/2SM FG VV002 RMK NXT FCST BY 220200Z
       
TAF CYHD 211938Z 2120/2208 17012G22KT P6SM BKN120 
     BECMG 2200/2202 17008KT 
     FM220400 17007KT P6SM -SHRA BKN040 
     TEMPO 2204/2208 5SM -SHRA BR 
     PROB30 2204/2208 VRB15G25KT 2SM TSRA BR BKN030CB RMK FCST BASED ON AUTO OBS. NXT FCST BY 220200Z
       
TAF CYEG 212338Z 2200/2224 34012KT P6SM -RA FEW008 BKN015 OVC025 
     FM220500 33010KT P6SM -RASN OVC006 
     TEMPO 2205/2216 2SM -SHSN OVC004 
     FM221600 30006KT P6SM BKN012 OVC025 
     TEMPO 2216/2220 5SM -DZ BR OVC008 
     FM222000 09008KT P6SM BKN020 RMK NXT FCST BY 220300Z
       
TAF CZVL 212338Z 2200/2212 34012KT P6SM -RA FEW008 BKN015 OVC025 
     FM220400 33010KT P6SM -RASN OVC006 
     TEMPO 2204/2212 2SM -SHSN OVC004 RMK FCST BASED ON AUTO OBS. NXT FCST BY 220600Z
       
TAF CZFA 211738Z 2118/2201 VRB03KT 1/2SM -DZ FG SCT003 BKN009 OVC050 
     BECMG 2118/2120 P6SM NSW FEW010 BKN070 RMK NXT FCST WILL BE ISSUED AT 221445Z
       
TAF CYPY 212345Z 2200/2206 02010KT P6SM OVC030 
     TEMPO 2200/2206 P6SM -RA BKN020 OVC100 RMK FCST BASED ON AUTO OBS. NXT FCST WILL BE ISSUED AT 221145Z
       
TAF CYMM 220038Z 2201/2213 34012KT P6SM SCT012 OVC025 
     TEMPO 2201/2213 5SM -RA BR OVC010 
     BECMG 2206/2208 27006KT RMK FCST BASED ON AUTO OBS. NXT FCST BY 220700Z
       
TAF CYYE 220038Z 2201/2213 VRB03KT P6SM FEW080 
     PROB30 2211/2213 1/2SM FG RMK NXT FCST BY 220700Z
       
TAF CYFS 212345Z 2200/2212 VRB03KT P6SM FEW100 RMK NXT FCST BY 220600Z
       
TAF CYSM 212345Z 2200/2212 01005KT P6SM SCT040 
     BECMG 2201/2203 VRB03KT RMK NXT FCST BY 220600Z
       
TAF CYXJ 220038Z 2201/2213 32012KT P6SM FEW030 SCT220 
     BECMG 2208/2210 13005KT RMK NXT FCST BY 220700Z
       
TAF CYFC 212338Z 2200/2212 03006KT P6SM SKC 
     PROB30 2208/2211 11/2SM BR RMK FCST BASED ON AUTO OBS. NXT FCST BY 220600Z
       
TAF CYQX 212338Z 2200/2224 30010KT P6SM BKN040 
     FM220300 30006KT P6SM FEW030 
     FM220600 VRB03KT P6SM SKC 
     PROB30 2206/2211 1/2SM FG VV002 
     FM221300 26010G20KT P6SM SKC 
     FM221500 27012G22KT P6SM FEW050 RMK NXT FCST BY 220600Z
       
TAF CYGP 211938Z 2120/2208 10006KT P6SM SKC 
     BECMG 2200/2202 VRB03KT 
     BECMG 2202/2204 29005KT 
     FM220500 28004KT 6SM BR SKC 
     PROB30 2205/2208 11/2SM BR RMK NXT FCST BY 220200Z
       
TAF CYND 211738Z 2118/2201 09005KT P6SM FEW250 
     BECMG 2121/2123 VRB03KT RMK NXT FCST WILL BE ISSUED AT 221245Z
       
TAF CYGQ 211938Z 2120/2208 13006KT P6SM SKC 
     BECMG 2200/2202 VRB03KT RMK NXT FCST BY 220200Z
       
TAF CYHK 212338Z 2200/2212 04010KT P6SM OVC012 
     TEMPO 2200/2212 P6SM -SN OVC007 RMK NXT FCST BY 220600Z
       
TAF CYYR 212330Z 2200/2224 06008KT P6SM SCT050 
     TEMPO 2200/2205 BKN050 
     FM220500 21008KT P6SM SCT040 OVC080 
     TEMPO 2205/2208 P6SM -SHRA BKN040 OVC080 
     FM220800 25010KT P6SM SCT040 
     BECMG 2213/2215 27015G25KT 
     BECMG 2215/2217 27020G32KT 
     FM222200 27012KT P6SM FEW050 RMK NXT FCST BY 220600Z
       
TAF CYQU 220038Z 2201/2213 29006KT P6SM SCT040 BKN100 BKN240 
     FM220300 26006KT P6SM SCT030 SCT240 RMK NXT FCST BY 220700Z
       
TAF CYZX 212330Z 2200/2224 05008KT P6SM SCT250 
     FM220800 05008KT P6SM -SHRA BKN050 
     FM221200 05010KT P6SM -SHRA SCT012 OVC025 
     FM222200 09008KT 6SM -RA BR SCT010 OVC020 RMK NXT FCST BY 220600Z
       
TAF CYHZ 212338Z 2200/2224 05010KT P6SM FEW030 BKN260 
     FM220900 06008KT P6SM -SHRA FEW020 BKN050 
     FM221600 07010KT P6SM SCT015 OVC025 
     FM222000 12009KT P6SM BKN030 RMK NXT FCST BY 220300Z
       
TAF CYAW 212335Z 2200/2206 04005KT P6SM FEW120 OVC250 RMK NXT FCST BY 220600Z
       
TAF CYUX 220038Z 2201/2213 01008KT P6SM FEW005 
     BECMG 2202/2204 33012KT RMK NXT FCST BY 220700Z
       
TAF CYHM 212338Z 2200/2224 05008KT P6SM SKC 
     FM220500 05005KT 6SM BR FEW005 SCT120 
     TEMPO 2205/2208 3SM BR 
     PROB40 2205/2208 11/2SM BR 
     FM220800 VRB03KT 2SM BR FEW004 SCT060 
     PROB30 2208/2213 1/2SM FG 
     FM221300 06007KT P6SM SCT060 RMK NXT FCST BY 220600Z
       
TAF CYGV 211938Z 2120/2208 26015KT P6SM SKC 
     BECMG 2123/2201 26007KT 
     FM220600 26007KT P6SM SCT070 RMK FCST BASED ON AUTO OBS. NXT FCST BY 220200Z
       
TAF CYHY 212345Z 2200/2212 06005KT P6SM BKN025 
     TEMPO 2200/2212 BKN020 RMK NXT FCST BY 220600Z
       
TAF CYOJ 220038Z 2201/2213 36008KT P6SM FEW025 RMK NXT FCST BY 220700Z
       
TAF CYGR 211938Z 2120/2202 02012KT P6SM FEW270 
     BECMG 2123/2201 07008KT RMK NXT FCST WILL BE ISSUED AT 221045Z
       
TAF CYEV 220038Z 2201/2213 32006KT 2SM -RA BR OVC005 
     TEMPO 2201/2213 P6SM -DZ OVC008 RMK NXT FCST BY 220700Z
       
TAF CYFB 212338Z 2200/2224 14008KT P6SM SCT020 BKN040 
     TEMPO 2200/2203 P6SM -DZ BKN020 OVC030 
     FM220300 VRB03KT P6SM SCT008 BKN025 
     TEMPO 2203/2209 P6SM -RASN BKN008 OVC020 
     BECMG 2204/2206 33008KT 
     FM220900 33008KT P6SM SCT008 
     TEMPO 2209/2212 BKN008 
     BECMG 2213/2215 34015KT RMK NXT FCST BY 220600Z
       
TAF CYKA 220038Z 2201/2213 30010G20KT P6SM SCT080 BKN180 
     TEMPO 2201/2204 P6SM -SHRA BKN070 BKN180 
     BECMG 2204/2206 27008KT 
     FM220600 27008KT P6SM FEW080 SCT140 RMK NXT FCST BY 220700Z
       
TAF CYYU 211938Z 2120/2208 VRB03KT P6SM FEW025 
     FM220200 14005KT P6SM SCT012 
     FM220400 14005KT P6SM BKN012 
     PROB30 2204/2208 2SM BR BKN006 RMK NXT FCST BY 220200Z
       
TAF CYLW 220038Z 2201/2213 36006KT P6SM SCT080 BKN160 
     TEMPO 2201/2204 18006KT P6SM -SHRA BKN080 BKN160 
     BECMG 2204/2206 VRB03KT 
     FM220600 VRB03KT P6SM FEW080 SCT140 RMK FCST BASED ON AUTO OBS. NXT FCST BY 220700Z
       
TAF CYQK 211938Z 2120/2208 17012G22KT P6SM BKN090 
     FM220000 17012G22KT P6SM BKN080 
     PROB30 2200/2201 3SM TSRA BR BKN080CB 
     FM220100 16008KT P6SM BKN080 
     PROB30 2201/2203 3SM TSRA BR BKN080CB 
     FM220600 15006KT P6SM -SHRA BKN040 
     PROB30 2206/2208 VRB15G25KT 2SM TSRA BR BKN030CB RMK NXT FCST BY 220200Z
       
TAF CYKF 211940Z 2120/2208 14007KT P6SM FEW030 
     TEMPO 2120/2122 5SM HZ 
     BECMG 2123/2201 10005KT 
     FM220500 09005KT P6SM BKN070 RMK FCST BASED ON AUTO OBS. NXT FCST BY 220200Z
       
TAF CYCO 220038Z 2201/2213 08010KT P6SM FEW012 SCT080 
     TEMPO 2201/2213 5SM -RA BR BKN012 
     BECMG 2205/2207 VRB03KT RMK NXT FCST BY 220700Z
       
TAF CYVP 212338Z 2200/2212 12005KT P6SM SCT020 OVC070 
     TEMPO 2200/2203 P6SM -SHRA OVC020 
     BECMG 2200/2202 26010KT 
     FM220300 26012G22KT P6SM SCT030 
     TEMPO 2203/2206 BKN030 
     FM220600 24012G22KT P6SM OVC030 
     TEMPO 2206/2212 P6SM -RA OVC020 RMK NXT FCST BY 220600Z
       
TAF CYGL 212338Z 2200/2224 22008KT P6SM FEW025 
     FM220800 15005KT P6SM BKN140 
     BECMG 2212/2214 15010KT 
     FM221700 16012KT P6SM BKN030 
     FM221900 18012G22KT P6SM -SHRA BKN020 
     FM222200 24015G25KT P6SM BKN030 RMK NXT FCST BY 220600Z
       
TAF CYVC 220038Z 2201/2213 33010KT P6SM SCT015 OVC040 
     TEMPO 2201/2207 4SM -DZ BR OVC015 
     FM220700 34006KT P6SM OVC015 
     TEMPO 2207/2213 4SM BR OVC008 RMK NXT FCST BY 220700Z
       
TAF CYQL 212338Z 2200/2212 32010G20KT P6SM SCT030 BKN080 
     TEMPO 2200/2205 BKN030 
     FM220500 28010KT P6SM OVC025 
     TEMPO 2205/2212 4SM -DZ BR OVC010 RMK NXT FCST BY 220600Z
       
TAF CYLL 212338Z 2200/2212 35010KT P6SM BKN015 BKN025 
     TEMPO 2200/2203 P6SM -RA SCT015 BKN025 
     FM220300 33008KT P6SM OVC012 
     TEMPO 2203/2212 4SM -DZ BR OVC006 RMK NXT FCST BY 220600Z
       
TAF CYXU 212338Z 2200/2224 15005KT P6SM SKC 
     BECMG 2203/2205 VRB03KT 
     FM221100 VRB03KT P6SM BKN060 
     FM221400 12008KT P6SM FEW040 RMK NXT FCST BY 220600Z
       
TAF AMD CYBX 212135Z 2121/2208 35008KT P6SM BKN040 
     FM220300 VRB03KT P6SM SCT040 RMK NXT FCST BY 220200Z
       
TAF CYYL 220038Z 2201/2213 33008KT P6SM OVC025 
     TEMPO 2201/2205 2SM -RA BR SCT008 OVC012 
     FM220500 34010G20KT P6SM OVC015 
     TEMPO 2205/2213 2SM -SHRA BR OVC006 RMK FCST BASED ON AUTO OBS. NXT FCST BY 220700Z
       
TAF CYZY 220038Z 2201/2209 35005KT P6SM BKN070 
     BECMG 2203/2205 FEW080 RMK FCST BASED ON AUTO OBS. NXT FCST BY 220700Z
       
TAF CYMA 212338Z 2200/2212 VRB03KT P6SM SCT030 BKN060 
     TEMPO 2200/2204 P6SM -SHRA 
     FM220800 02007KT P6SM SCT030 BKN050 
     TEMPO 2208/2212 P6SM -RA FEW020 OVC030 RMK NXT FCST BY 220600Z
       
TAF CYXH 212338Z 2200/2212 28010G20KT P6SM BKN040 
     FM220700 26008KT P6SM OVC025 
     TEMPO 2207/2212 4SM -DZ BR OVC010 RMK NXT FCST BY 220600Z
       
TAF CYQM 212338Z 2200/2224 06006KT P6SM FEW040 SCT260 
     FM220600 05005KT P6SM FEW002 
     PROB30 2206/2211 1/2SM FG VV002 
     FM221200 03006KT P6SM FEW012 
     BECMG 2222/2224 10005KT RMK NXT FCST BY 220600Z
       
TAF CYYY 211938Z 2120/2208 05006KT P6SM SKC 
     BECMG 2202/2204 15005KT 
     FM220700 16005KT P6SM BKN050 RMK NXT FCST BY 220200Z
       
TAF CYUL 212338Z 2200/2224 03010KT P6SM SCT240 
     BECMG 2216/2218 06008KT RMK NXT FCST BY 220300Z
       
TAF CYMX 212338Z 2200/2224 VRB03KT P6SM SCT250 
     BECMG 2214/2216 08006KT RMK NXT FCST BY 220600Z
       
TAF CYHU 212338Z 2200/2224 01007KT P6SM SCT240 RMK FCST BASED ON AUTO OBS. NXT FCST BY 220600Z
       
TAF CYMJ 212330Z 2200/2212 28010G20KT P6SM SCT050 BKN160 
     BECMG 2200/2202 28010KT 
     FM221000 30005KT P6SM SCT008 BKN160 
     TEMPO 2210/2212 4SM BR BKN008 OVC160 
     PROB30 2210/2212 1SM BR OVC003 RMK NXT FCST BY 220600Z
       
TAF AMD CYQA 212338Z 2123/2202 VRB03KT P6SM SCT030 
     TEMPO 2123/2202 2SM BR RMK FCST BASED ON AUTO OBS. NXT FCST WILL BE ISSUED AT 221145Z
       
TAF CYCD 212338Z 2200/2204 VRB03KT P6SM FEW050 SCT100 RMK NXT FCST WILL BE ISSUED AT 221445Z
       
TAF CYNA 211938Z 2120/2208 26015KT P6SM SKC 
     BECMG 2122/2124 26008KT RMK FCST BASED ON AUTO OBS. NXT FCST BY 220200Z
       
TAF CYVQ 212345Z 2200/2212 VRB03KT P6SM FEW007 BKN020 
     TEMPO 2200/2209 SCT025 
     FM220900 10005KT P6SM FEW007 OVC020 
     TEMPO 2209/2212 2SM -DZ BR OVC007 RMK NXT FCST BY 220600Z
       
TAF CYQW 212341Z 2200/2212 32010KT P6SM SCT020 BKN040 
     TEMPO 2200/2208 BKN020 OVC040 
     FM220800 33006KT P6SM OVC020 
     TEMPO 2208/2212 4SM BR OVC008 
     PROB30 2210/2212 2SM BR BKN004 OVC008 RMK FCST BASED ON AUTO OBS. NXT FCST BY 220600Z
       
TAF CYYB 211938Z 2120/2208 25008KT P6SM FEW030 SCT120 
     FM220000 VRB03KT P6SM BKN070 RMK NXT FCST BY 220200Z
       
TAF CYOC 211738Z 2118/2201 04015G25KT P6SM BKN030 
     TEMPO 2121/2201 5SM -RASN BR OVC020 RMK NXT FCST WILL BE ISSUED AT 221445Z
       
TAF CYOW 212338Z 2200/2224 09005KT P6SM FEW220 
     BECMG 2200/2202 VRB03KT 
     BECMG 2214/2216 08006KT RMK NXT FCST BY 220300Z
       
TAF CYPE 220038Z 2201/2213 01005KT P6SM FEW030 SCT250 
     FM221000 VRB03KT P6SM SKC 
     PROB30 2210/2213 1/2SM FZFG RMK NXT FCST BY 220700Z
       
TAF CYYF 220038Z 2201/2213 36005KT P6SM SCT080 BKN250 
     TEMPO 2201/2204 P6SM -SHRA BKN070 BKN250 
     BECMG 2204/2206 VRB03KT 
     FM220600 VRB03KT P6SM FEW080 SCT140 RMK NXT FCST BY 220700Z
       
TAF CYWA 212330Z 2200/2212 14005KT P6SM FEW030 
     BECMG 2200/2202 VRB03KT 
     FM220900 VRB03KT P6SM SCT050 
     TEMPO 2209/2212 3SM BR BKN010 RMK FCST BASED ON AUTO OBS. NXT FCST BY 220600Z
       
TAF CYPQ 211938Z 2120/2202 16007KT P6SM SCT030 
     BECMG 2122/2124 VRB03KT RMK FCST BASED ON AUTO OBS. NXT FCST WILL BE ISSUED AT 220945Z
       
TAF CYPL 211938Z 2120/2202 22010KT P6SM BKN120 
     BECMG 2120/2122 14010KT RMK NXT FCST WILL BE ISSUED AT 221245Z
       
TAF CYIO 220038Z 2201/2213 15010KT P6SM OVC012 
     TEMPO 2201/2213 SCT015 RMK FCST BASED ON AUTO OBS. NXT FCST BY 220700Z
       
TAF CYZT 220038Z 2201/2213 32008KT P6SM SCT220 
     BECMG 2203/2205 VRB03KT RMK NXT FCST BY 220700Z
       
TAF CYPA 220038Z 2201/2213 28006KT P6SM BKN040 
     TEMPO 2201/2208 BKN020 
     FM220800 34006KT P6SM OVC020 
     TEMPO 2208/2213 OVC008 RMK NXT FCST BY 220700Z
       
TAF CYXS 220038Z 2201/2213 36008KT P6SM SCT060 
     TEMPO 2201/2204 BKN060 
     FM220400 VRB03KT P6SM FEW080 RMK FCST BASED ON AUTO OBS. NXT FCST BY 220700Z
       
TAF CYPR 220038Z 2201/2213 VRB03KT P6SM SKC 
     FM220600 VRB03KT P6SM BKN100 
     FM221000 VRB03KT P6SM SCT006 BKN050 
     PROB30 2210/2213 1SM -RA BR BKN006 BKN050 RMK FCST BASED ON AUTO OBS. NXT FCST BY 220700Z
       
TAF CYPX 212338Z 2200/2212 07025G35KT 2SM -RA BR OVC007 
     TEMPO 2200/2206 6SM -RA SCT007 OVC025 
     BECMG 2202/2204 01015G25KT 
     FM220600 35010KT P6SM SCT012 BKN030 
     TEMPO 2206/2212 5SM -RA BR BKN012 
     BECMG 2207/2209 01005KT RMK FCST BASED ON AUTO OBS. NXT FCST BY 220600Z
       
TAF CYVM 220038Z 2201/2213 VRB03KT P6SM SCT020 OVC040 RMK FCST BASED ON AUTO OBS. NXT FCST BY 220700Z
       
TAF CYQB 212338Z 2200/2224 08005KT P6SM FEW220 
     BECMG 2200/2202 VRB03KT 
     BECMG 2215/2217 22007KT RMK NXT FCST BY 220600Z
       
TAF CYQZ 220038Z 2201/2206 34012G22KT P6SM SCT060 
     TEMPO 2201/2204 BKN060 
     FM220400 VRB03KT P6SM FEW080 RMK FCST BASED ON AUTO OBS. NXT FCST WILL BE ISSUED AT 221145Z
       
TAF CYRT 212338Z 2200/2212 06015G25KT P6SM SCT015 OVC120 
     TEMPO 2200/2212 6SM -RA BR SCT008 OVC012 RMK NXT FCST BY 220600Z
       
TAF CYQF 212338Z 2200/2212 32010G20KT P6SM -RASN BKN020 OVC060 
     FM220400 34010KT 6SM -RASN SCT006 OVC012 
     TEMPO 2204/2212 2SM -SHSN BR OVC006 RMK NXT FCST BY 220600Z
       
TAF CYRL 211938Z 2120/2202 16012G22KT P6SM BKN090 
     BECMG 2120/2122 13008KT RMK NXT FCST WILL BE ISSUED AT 221045Z
       
TAF CYQR 212341Z 2200/2224 30010KT P6SM FEW120 SCT200 
     FM220800 28006KT P6SM SCT012 
     TEMPO 2208/2216 4SM BR SCT006 BKN012 
     PROB40 2210/2216 30006KT 1SM BR OVC004 
     FM221600 35010KT P6SM SCT015 OVC060 
     TEMPO 2216/2224 4SM -SHRA BR BKN015 OVC060 RMK NXT FCST BY 220600Z
       
TAF AMD CYRB 220015Z 2200/2224 VRB03KT P6SM SCT006 
     TEMPO 2200/2206 BKN005 
     BECMG 2202/2204 30008KT 
     FM220600 30012KT P6SM SCT008 OVC012 
     TEMPO 2206/2224 4SM -SN BR OVC008 
     PROB30 2206/2212 2SM -FZDZ BR OVC005 RMK NXT FCST BY 220600Z
       
TAF CYRJ 211938Z 2120/2202 VRB03KT P6SM SKC 
     FM220000 24008KT P6SM BKN060 RMK NXT FCST WILL BE ISSUED AT 221145Z
       
TAF CYUY 212338Z 2200/2212 VRB03KT P6SM SCT020 BKN090 
     TEMPO 2200/2203 BKN020 
     FM220300 13005KT P6SM BKN025 
     TEMPO 2203/2212 BKN020 
     PROB30 2203/2212 2SM BR BKN006 RMK NXT FCST BY 220600Z
       
TAF CYSJ 212338Z 2200/2212 05006KT P6SM BKN280 RMK NXT FCST BY 220600Z
       
TAF CYZP 220038Z 2201/2213 VRB03KT P6SM SKC 
     FM220600 33008KT P6SM BKN080 
     FM221000 VRB03KT P6SM BKN040 
     TEMPO 2210/2213 P6SM -RA RMK FCST BASED ON AUTO OBS. NXT FCST BY 220700Z
       
TAF CYZR 211940Z 2120/2202 15010KT P6SM FEW030 
     TEMPO 2120/2122 5SM HZ 
     FM220000 14012KT P6SM SCT140 
     PROB30 2200/2202 2SM TSRA BR BKN050CB RMK FCST BASED ON AUTO OBS. NXT FCST WILL BE ISSUED AT 220745Z
       
TAF CYXE 212341Z 2200/2224 28012KT P6SM BKN030 
     TEMPO 2200/2208 BKN020 
     FM220800 VRB03KT P6SM SCT008 BKN015 
     TEMPO 2208/2220 4SM BR SCT004 BKN008 OVC015 
     PROB30 2210/2216 1SM BR OVC004 
     FM222000 33008KT P6SM BKN025 RMK NXT FCST BY 220600Z
       
TAF CYAM 211938Z 2120/2208 VRB03KT P6SM BKN015 
     TEMPO 2120/2123 SCT015 
     FM212300 09005KT P6SM SCT020 
     TEMPO 2123/2203 5SM BR BKN020 
     FM220300 09005KT 6SM BR FEW004 SCT030 
     TEMPO 2203/2206 11/2SM BR 
     FM220600 09005KT 1/2SM FG VV002 
     PROB40 2206/2208 1/4SM FG VV001 RMK NXT FCST BY 220200Z
       
TAF AMD CYKL 212341Z 2123/2208 13010KT P6SM -SHRA SCT008 OVC015 
     TEMPO 2123/2204 5SM -SHRA BR BKN008 OVC015 
     BECMG 2123/2201 22012G22KT 
     FM220400 27012G22KT P6SM SCT015 RMK FCST BASED ON AUTO OBS. NXT FCST BY 220200Z
       
TAF CYZV 212338Z 2200/2224 VRB03KT P6SM FEW120 
     FM220300 VRB03KT P6SM SCT040 BKN080 
     FM221000 VRB03KT P6SM FEW030 
     BECMG 2214/2216 20008KT 
     BECMG 2222/2224 07005KT RMK NXT FCST BY 220600Z
       
TAF CYSC 212338Z 2200/2203 VRB03KT P6SM SKC RMK FCST BASED ON AUTO OBS. NXT FCST WILL BE ISSUED AT 221045Z
       
TAF CYXL 211938Z 2120/2208 18008KT P6SM BKN130 
     FM220500 VRB03KT P6SM -SHRA BKN040 
     TEMPO 2205/2208 5SM -SHRA BR 
     PROB30 2205/2208 VRB15G25KT 2SM TSRA BR BKN030CB RMK NXT FCST BY 220200Z
       
TAF CYZH 220038Z 2201/2213 33008KT P6SM SCT015 OVC040 
     TEMPO 2201/2209 P6SM -RA BKN015 OVC030 
     FM220900 28005KT P6SM SCT030 RMK FCST BASED ON AUTO OBS. NXT FCST BY 220700Z
       
TAF CYYD 220038Z 2201/2206 VRB03KT P6SM FEW070 SCT110 RMK NXT FCST WILL BE ISSUED AT 221345Z
       
TAF CYPG 211730Z 2118/2206 18010KT P6SM -SHRA BKN080 OVC160 
     FM212000 04010KT P6SM SCT080 BKN160 
     FM212300 01015KT P6SM BKN050 
     BECMG 2204/2206 32010KT RMK NXT FCST BY 220000Z
       
TAF AMD CYAY 212246Z 2122/2208 31012G22KT P6SM BKN030 
     BECMG 2200/2202 32008KT 
     FM220400 VRB03KT P6SM SCT030 RMK FCST BASED ON AUTO OBS. NXT FCST BY 220200Z
       
TAF CYSN 211940Z 2120/2201 02008KT P6SM SKC 
     BECMG 2123/2201 11007KT RMK NXT FCST WILL BE ISSUED AT 221245Z
       
TAF CYYT 212338Z 2200/2224 33012KT P6SM SCT040 
     FM221100 28010KT P6SM FEW020 
     BECMG 2212/2214 27012G22KT SKC 
     FM221800 26015G25KT P6SM SKC RMK NXT FCST BY 220600Z
       
TAF CYJT 212338Z 2200/2224 36007KT P6SM SKC 
     BECMG 2200/2202 VRB03KT 
     FM221000 VRB03KT P6SM FEW020 SCT090 
     FM221500 26012KT P6SM SKC 
     BECMG 2222/2224 26008KT RMK NXT FCST BY 220600Z
       
TAF CYSB 211938Z 2120/2208 18010KT P6SM SCT030 BKN120 
     BECMG 2121/2123 15008KT 
     FM220200 14006KT P6SM BKN040 RMK NXT FCST BY 220200Z
       
TAF CYYN 212341Z 2200/2212 28012G22KT P6SM BKN040 
     TEMPO 2200/2210 BKN020 
     FM221000 28008KT P6SM BKN020 
     TEMPO 2210/2212 BKN008 RMK FCST BASED ON AUTO OBS. NXT FCST BY 220600Z
       
TAF CYQY 212338Z 2200/2212 02008KT P6SM FEW030 FEW250 
     FM220600 VRB03KT P6SM SKC 
     PROB30 2206/2211 11/2SM BR RMK NXT FCST BY 220600Z
       
TAF CYYH 212338Z 2200/2212 33005KT P6SM FEW012 RMK NXT FCST BY 220600Z
       
TAF CYXT 220038Z 2201/2213 VRB03KT P6SM FEW080 SCT160 
     FM220900 VRB03KT P6SM SCT060 BKN120 OVC220 RMK NXT FCST BY 220700Z
       
TAF CYZW 211738Z 2118/2201 VRB03KT P6SM FEW080 SCT220 RMK NXT FCST WILL BE ISSUED AT 221445Z
       
TAF CYQD 220038Z 2201/2213 26012KT P6SM FEW050 
     FM220400 30008KT P6SM BKN020 
     TEMPO 2204/2213 BKN008 RMK NXT FCST BY 220700Z
       
TAF CYTH 220038Z 2201/2213 30006KT P6SM SCT040 
     TEMPO 2201/2204 BKN040 
     FM220400 28006KT P6SM SCT012 OVC030 
     TEMPO 2204/2208 OVC012 
     FM220800 30008KT P6SM OVC015 
     TEMPO 2208/2213 3SM BR OVC006 RMK NXT FCST BY 220700Z
       
TAF CYQT 211938Z 2120/2208 17008KT P6SM SKC 
     BECMG 2123/2201 VRB03KT 
     FM220300 VRB03KT 2SM BR SCT002 
     FM220600 VRB03KT 1SM BR BKN002 
     TEMPO 2206/2208 2SM -SHRA BR 
     PROB30 2206/2208 VRB15G25KT 2SM TSRA BR BKN002 BKN030CB RMK NXT FCST BY 220200Z
       
TAF AMD CYTS 212308Z 2123/2208 VRB03KT P6SM SCT012 BKN060 
     TEMPO 2123/2206 5SM -DZ BR BKN012 
     FM220600 VRB03KT 6SM BR SCT005 OVC010 
     TEMPO 2206/2208 2SM -DZ BR OVC005 
     PROB30 2206/2208 1/2SM FG OVC002 RMK NXT FCST BY 220200Z
       
TAF CYAZ 211738Z 2118/2201 VRB03KT P6SM FEW220 
     BECMG 2120/2122 27008KT RMK NXT FCST WILL BE ISSUED AT 221445Z
       
TAF CYKZ 212338Z 2200/2212 10005KT P6SM FEW100 
     PROB30 2208/2212 2SM BR RMK NXT FCST BY 220600Z
       
TAF CYTZ 211940Z 2120/2220 08007KT P6SM SKC 
     BECMG 2200/2202 08005KT 
     FM221200 07007KT P6SM BKN070 RMK FCST BASED ON AUTO OBS. NXT FCST BY 220200Z
       
TAF CYYZ 212338Z 2200/2306 12005KT P6SM FEW100 
     PROB30 2208/2212 2SM BR 
     FM221200 11005KT P6SM BKN050 
     FM222000 15007KT P6SM FEW060 
     BECMG 2300/2302 VRB03KT RMK NXT FCST BY 220300Z
       
TAF CYTR 212330Z 2200/2224 20005KT P6SM FEW250 
     BECMG 2200/2202 05005KT 
     BECMG 2217/2219 21008KT 
     FM221900 21008KT P6SM FEW080 
     BECMG 2222/2224 VRB03KT RMK NXT FCST BY 220600Z
       
TAF CYRQ 211938Z 2120/2208 07008KT P6SM FEW240 
     BECMG 2123/2201 VRB03KT RMK FCST BASED ON AUTO OBS. NXT FCST BY 220200Z
       
TAF CYUB 220038Z 2201/2205 04012G22KT 3/4SM -RA BR OVC003 
     TEMPO 2201/2205 3SM BR OVC006 RMK NXT FCST WILL BE ISSUED AT 221445Z
       
TAF CYVO 212338Z 2200/2212 VRB03KT P6SM SCT030 BKN230 
     FM220300 14005KT P6SM BKN025 
     TEMPO 2203/2212 BKN020 
     PROB30 2203/2212 2SM BR BKN006 RMK NXT FCST BY 220600Z
       
TAF CYVR 212338Z 2200/2306 26006KT P6SM FEW040 SCT080 BKN100 
     FM220600 09006KT P6SM SCT080 
     FM221200 VRB03KT P6SM FEW100 
     BECMG 2217/2219 28010KT 
     FM222300 27008KT P6SM FEW140 BKN210 RMK NXT FCST BY 220300Z
       
TAF CYYJ 212338Z 2200/2224 11006KT P6SM FEW040 SCT080 
     BECMG 2201/2203 VRB03KT 
     FM221200 VRB03KT P6SM FEW080 
     BECMG 2217/2219 11007KT RMK NXT FCST BY 220600Z
       
TAF CYWK 211944Z 2120/2208 18012KT P6SM FEW050 SCT140 
     FM212200 21012KT P6SM FEW015 BKN040 
     TEMPO 2122/2204 5SM -SHRA BR BKN015 OVC040 
     FM220400 27010G20KT P6SM SCT015 RMK NXT FCST BY 220200Z
       
TAF CYQH 212338Z 2200/2212 13005KT P6SM FEW060 SCT220 
     FM220900 VRB03KT P6SM SCT050 BKN110 OVC220 
     TEMPO 2209/2212 P6SM -RA RMK NXT FCST BY 220600Z
       
TAF CYXY 212338Z 2200/2224 16010KT P6SM FEW030 BKN140 OVC240 
     FM220400 16010KT P6SM FEW040 BKN080 OVC140 
     TEMPO 2204/2209 P6SM -SHRA BKN040 
     FM220900 16010KT P6SM BKN020 BKN060 
     FM221800 16012KT P6SM FEW030 SCT070 RMK NXT FCST BY 220600Z
       
TAF CYWL 220038Z 2201/2213 30012G22KT P6SM FEW040 
     BECMG 2206/2208 VRB03KT RMK NXT FCST BY 220700Z
       
TAF CYQG 212338Z 2200/2224 13005KT P6SM SCT050 
     PROB30 2200/2203 VRB15G25KT 2SM TSRA BR BKN020 OVC050CB 
     FM220300 11005KT P6SM SCT120 
     FM220500 VRB03KT P6SM BKN070 
     PROB30 2209/2214 VRB15G25KT 2SM TSRA BR BKN020 OVC040CB 
     FM221400 VRB03KT P6SM SKC 
     BECMG 2218/2220 13007KT 
     FM222300 13007KT P6SM SCT040 
     PROB30 2223/2224 2SM TSRA BR BKN040CB RMK NXT FCST BY 220600Z
       
TAF CYWG 212341Z 2200/2224 02012KT P6SM BKN070 
     BECMG 2202/2204 30008KT 
     FM220800 34010KT P6SM FEW020 
     PROB30 2208/2214 1SM BR 
     FM221400 02015KT P6SM FEW200 
     FM221800 03015G25KT P6SM BKN080 
     PROB30 2218/2224 VRB25G35KT 4SM TSRA OVC080CB RMK NXT FCST BY 220600Z
       
TAF CYQI 212338Z 2200/2212 09015G25KT P6SM BKN040 OVC250 
     TEMPO 2200/2205 P6SM -SHRA 
     FM220500 07015G25KT P6SM -SHRA OVC015 
     TEMPO 2205/2212 P6SM NSW FEW015 OVC030 RMK NXT FCST BY 220600Z
       
TAF CYZF 212345Z 2200/2224 VRB03KT P6SM OVC030 
     TEMPO 2200/2212 BKN020 
     FM221200 06012KT P6SM BKN025 RMK NXT FCST BY 220600Z
       
TAF CYQV 212341Z 2200/2206 26010KT P6SM SCT200 RMK FCST BASED ON AUTO OBS. NXT FCST WILL BE ISSUED AT 221145Z